sensor_id;sensor_type;location;lat;lon;timestamp;P1;durP1;ratioP1;P2;durP2;ratioP2
41105;SDS011;74159;52.530;13.188;2024-02-26T00:00:29;9.15;;;4.70;;
41105;SDS011;74159;52.530;13.188;2024-02-26T00:02:55;7.50;;;4.70;;
41105;SDS011;74159;52.530;13.188;2024-02-26T00:05:20;7.18;;;4.22;;
41105;SDS011;74159;52.530;13.188;2024-02-26T00:07:46;10.10;;;4.28;;
41105;SDS011;74159;52.530;13.188;2024-02-26T00:10:12;7.75;;;4.68;;
41105;SDS011;74159;52.530;13.188;2024-02-26T00:12:38;9.98;;;4.35;;
41105;SDS011;74159;52.530;13.188;2024-02-26T00:15:04;8.30;;;4.97;;
41105;SDS011;74159;52.530;13.188;2024-02-26T00:17:30;8.00;;;5.05;;
41105;SDS011;74159;52.530;13.188;2024-02-26T00:19:56;7.32;;;4.60;;
41105;SDS011;74159;52.530;13.188;2024-02-26T00:22:21;7.47;;;5.00;;
41105;SDS011;74159;52.530;13.188;2024-02-26T00:24:47;11.02;;;5.38;;
41105;SDS011;74159;52.530;13.188;2024-02-26T00:27:12;6.90;;;4.70;;
41105;SDS011;74159;52.530;13.188;2024-02-26T00:29:37;8.15;;;5.13;;
41105;SDS011;74159;52.530;13.188;2024-02-26T00:32:03;11.80;;;5.10;;
41105;SDS011;74159;52.530;13.188;2024-02-26T00:34:28;12.82;;;6.38;;
41105;SDS011;74159;52.530;13.188;2024-02-26T00:36:54;16.05;;;8.00;;
41105;SDS011;74159;52.530;13.188;2024-02-26T00:39:19;11.07;;;5.53;;
41105;SDS011;74159;52.530;13.188;2024-02-26T00:41:44;11.25;;;5.28;;
41105;SDS011;74159;52.530;13.188;2024-02-26T00:44:10;12.63;;;5.72;;
41105;SDS011;74159;52.530;13.188;2024-02-26T00:46:35;10.48;;;5.45;;
41105;SDS011;74159;52.530;13.188;2024-02-26T00:49:00;12.30;;;5.40;;
41105;SDS011;74159;52.530;13.188;2024-02-26T00:51:26;10.45;;;5.47;;
41105;SDS011;74159;52.530;13.188;2024-02-26T00:53:52;12.85;;;6.18;;
41105;SDS011;74159;52.530;13.188;2024-02-26T00:56:17;10.63;;;5.75;;
41105;SDS011;74159;52.530;13.188;2024-02-26T00:58:43;9.60;;;5.70;;
41105;SDS011;74159;52.530;13.188;2024-02-26T01:01:08;10.68;;;6.13;;
41105;SDS011;74159;52.530;13.188;2024-02-26T01:03:34;12.55;;;6.35;;
41105;SDS011;74159;52.530;13.188;2024-02-26T01:05:59;11.30;;;6.18;;
41105;SDS011;74159;52.530;13.188;2024-02-26T01:08:25;10.73;;;6.50;;
41105;SDS011;74159;52.530;13.188;2024-02-26T01:10:50;10.75;;;5.60;;
41105;SDS011;74159;52.530;13.188;2024-02-26T01:13:15;12.20;;;5.88;;
41105;SDS011;74159;52.530;13.188;2024-02-26T01:15:41;12.95;;;5.90;;
41105;SDS011;74159;52.530;13.188;2024-02-26T01:18:06;11.57;;;6.03;;
41105;SDS011;74159;52.530;13.188;2024-02-26T01:20:31;11.23;;;6.38;;
41105;SDS011;74159;52.530;13.188;2024-02-26T01:22:57;12.25;;;5.40;;
41105;SDS011;74159;52.530;13.188;2024-02-26T01:25:22;12.18;;;6.32;;
41105;SDS011;74159;52.530;13.188;2024-02-26T01:27:48;13.35;;;6.38;;
41105;SDS011;74159;52.530;13.188;2024-02-26T01:30:13;11.73;;;6.38;;
41105;SDS011;74159;52.530;13.188;2024-02-26T01:32:41;13.25;;;7.28;;
41105;SDS011;74159;52.530;13.188;2024-02-26T01:35:06;9.30;;;5.82;;
41105;SDS011;74159;52.530;13.188;2024-02-26T01:37:35;13.80;;;6.03;;
41105;SDS011;74159;52.530;13.188;2024-02-26T01:40:01;12.35;;;6.65;;
41105;SDS011;74159;52.530;13.188;2024-02-26T01:42:29;13.23;;;6.78;;
41105;SDS011;74159;52.530;13.188;2024-02-26T01:44:57;11.77;;;6.72;;
41105;SDS011;74159;52.530;13.188;2024-02-26T01:47:23;12.52;;;5.93;;
41105;SDS011;74159;52.530;13.188;2024-02-26T01:49:49;13.40;;;6.80;;
41105;SDS011;74159;52.530;13.188;2024-02-26T01:52:14;10.77;;;6.50;;
41105;SDS011;74159;52.530;13.188;2024-02-26T01:54:40;17.52;;;6.60;;
41105;SDS011;74159;52.530;13.188;2024-02-26T01:57:07;13.55;;;7.60;;
41105;SDS011;74159;52.530;13.188;2024-02-26T01:59:33;13.93;;;8.93;;
41105;SDS011;74159;52.530;13.188;2024-02-26T02:02:01;14.40;;;8.25;;
41105;SDS011;74159;52.530;13.188;2024-02-26T02:04:28;18.20;;;7.25;;
41105;SDS011;74159;52.530;13.188;2024-02-26T02:06:54;14.32;;;7.53;;
41105;SDS011;74159;52.530;13.188;2024-02-26T02:09:23;16.08;;;7.43;;
41105;SDS011;74159;52.530;13.188;2024-02-26T02:11:48;15.30;;;9.13;;
41105;SDS011;74159;52.530;13.188;2024-02-26T02:14:14;13.68;;;7.40;;
41105;SDS011;74159;52.530;13.188;2024-02-26T02:16:39;18.20;;;8.57;;
41105;SDS011;74159;52.530;13.188;2024-02-26T02:19:05;15.90;;;8.57;;
41105;SDS011;74159;52.530;13.188;2024-02-26T02:21:30;16.65;;;8.77;;
41105;SDS011;74159;52.530;13.188;2024-02-26T02:23:56;21.08;;;9.15;;
41105;SDS011;74159;52.530;13.188;2024-02-26T02:26:21;17.88;;;9.32;;
41105;SDS011;74159;52.530;13.188;2024-02-26T02:28:47;15.63;;;8.65;;
41105;SDS011;74159;52.530;13.188;2024-02-26T02:31:13;13.88;;;9.30;;
41105;SDS011;74159;52.530;13.188;2024-02-26T02:33:40;16.40;;;8.65;;
41105;SDS011;74159;52.530;13.188;2024-02-26T02:36:05;21.35;;;9.48;;
41105;SDS011;74159;52.530;13.188;2024-02-26T02:38:34;13.45;;;8.93;;
41105;SDS011;74159;52.530;13.188;2024-02-26T02:41:00;16.25;;;9.15;;
41105;SDS011;74159;52.530;13.188;2024-02-26T02:43:26;15.40;;;7.93;;
41105;SDS011;74159;52.530;13.188;2024-02-26T02:45:51;15.07;;;8.85;;
41105;SDS011;74159;52.530;13.188;2024-02-26T02:48:16;14.38;;;8.63;;
41105;SDS011;74159;52.530;13.188;2024-02-26T02:50:42;16.73;;;9.60;;
41105;SDS011;74159;52.530;13.188;2024-02-26T02:53:07;16.67;;;9.05;;
41105;SDS011;74159;52.530;13.188;2024-02-26T02:55:32;20.10;;;10.30;;
41105;SDS011;74159;52.530;13.188;2024-02-26T02:57:58;27.17;;;9.93;;
41105;SDS011;74159;52.530;13.188;2024-02-26T03:00:23;16.88;;;9.57;;
41105;SDS011;74159;52.530;13.188;2024-02-26T03:02:49;15.82;;;9.13;;
41105;SDS011;74159;52.530;13.188;2024-02-26T03:05:14;18.58;;;9.10;;
41105;SDS011;74159;52.530;13.188;2024-02-26T03:07:40;12.43;;;9.25;;
41105;SDS011;74159;52.530;13.188;2024-02-26T03:10:05;14.38;;;9.55;;
41105;SDS011;74159;52.530;13.188;2024-02-26T03:12:31;16.85;;;10.85;;
41105;SDS011;74159;52.530;13.188;2024-02-26T03:14:57;21.90;;;10.35;;
41105;SDS011;74159;52.530;13.188;2024-02-26T03:17:22;15.35;;;9.77;;
41105;SDS011;74159;52.530;13.188;2024-02-26T03:19:49;17.38;;;10.18;;
41105;SDS011;74159;52.530;13.188;2024-02-26T03:22:18;18.27;;;9.98;;
41105;SDS011;74159;52.530;13.188;2024-02-26T03:24:43;16.70;;;10.23;;
41105;SDS011;74159;52.530;13.188;2024-02-26T03:27:09;18.30;;;10.35;;
41105;SDS011;74159;52.530;13.188;2024-02-26T03:29:37;19.83;;;10.07;;
41105;SDS011;74159;52.530;13.188;2024-02-26T03:32:04;17.90;;;9.50;;
41105;SDS011;74159;52.530;13.188;2024-02-26T03:34:30;14.75;;;9.15;;
41105;SDS011;74159;52.530;13.188;2024-02-26T03:36:55;19.42;;;10.40;;
41105;SDS011;74159;52.530;13.188;2024-02-26T03:39:21;18.73;;;9.30;;
41105;SDS011;74159;52.530;13.188;2024-02-26T03:41:47;18.27;;;10.20;;
41105;SDS011;74159;52.530;13.188;2024-02-26T03:44:13;19.75;;;11.15;;
41105;SDS011;74159;52.530;13.188;2024-02-26T03:46:38;17.15;;;8.93;;
41105;SDS011;74159;52.530;13.188;2024-02-26T03:49:03;18.55;;;9.32;;
41105;SDS011;74159;52.530;13.188;2024-02-26T03:51:29;16.27;;;10.80;;
41105;SDS011;74159;52.530;13.188;2024-02-26T03:53:56;17.88;;;11.25;;
41105;SDS011;74159;52.530;13.188;2024-02-26T03:56:23;20.42;;;11.60;;
41105;SDS011;74159;52.530;13.188;2024-02-26T03:58:48;18.10;;;11.80;;
41105;SDS011;74159;52.530;13.188;2024-02-26T04:01:13;22.63;;;10.85;;
41105;SDS011;74159;52.530;13.188;2024-02-26T04:03:39;24.73;;;11.48;;
41105;SDS011;74159;52.530;13.188;2024-02-26T04:06:04;17.15;;;10.80;;
41105;SDS011;74159;52.530;13.188;2024-02-26T04:08:29;20.20;;;12.30;;
41105;SDS011;74159;52.530;13.188;2024-02-26T04:10:55;14.85;;;10.18;;
41105;SDS011;74159;52.530;13.188;2024-02-26T04:13:20;14.60;;;9.35;;
41105;SDS011;74159;52.530;13.188;2024-02-26T04:15:46;17.52;;;10.38;;
41105;SDS011;74159;52.530;13.188;2024-02-26T04:18:12;18.70;;;10.75;;
41105;SDS011;74159;52.530;13.188;2024-02-26T04:20:37;20.30;;;10.73;;
41105;SDS011;74159;52.530;13.188;2024-02-26T04:23:03;18.70;;;10.80;;
41105;SDS011;74159;52.530;13.188;2024-02-26T04:25:28;16.10;;;9.20;;
41105;SDS011;74159;52.530;13.188;2024-02-26T04:27:54;14.90;;;10.15;;
41105;SDS011;74159;52.530;13.188;2024-02-26T04:30:19;17.35;;;9.98;;
41105;SDS011;74159;52.530;13.188;2024-02-26T04:32:45;15.50;;;9.73;;
41105;SDS011;74159;52.530;13.188;2024-02-26T04:35:10;17.27;;;10.90;;
41105;SDS011;74159;52.530;13.188;2024-02-26T04:37:36;14.93;;;10.93;;
41105;SDS011;74159;52.530;13.188;2024-02-26T04:40:01;16.33;;;9.85;;
41105;SDS011;74159;52.530;13.188;2024-02-26T04:42:27;17.25;;;10.50;;
41105;SDS011;74159;52.530;13.188;2024-02-26T04:44:54;16.80;;;9.48;;
41105;SDS011;74159;52.530;13.188;2024-02-26T04:47:20;14.55;;;9.95;;
41105;SDS011;74159;52.530;13.188;2024-02-26T04:49:47;15.93;;;9.85;;
41105;SDS011;74159;52.530;13.188;2024-02-26T04:52:14;17.23;;;10.68;;
41105;SDS011;74159;52.530;13.188;2024-02-26T04:54:39;15.13;;;9.40;;
41105;SDS011;74159;52.530;13.188;2024-02-26T04:57:04;20.13;;;10.30;;
41105;SDS011;74159;52.530;13.188;2024-02-26T04:59:30;12.85;;;9.82;;
41105;SDS011;74159;52.530;13.188;2024-02-26T05:01:55;16.50;;;10.13;;
41105;SDS011;74159;52.530;13.188;2024-02-26T05:04:20;16.95;;;10.02;;
41105;SDS011;74159;52.530;13.188;2024-02-26T05:06:46;16.02;;;9.82;;
41105;SDS011;74159;52.530;13.188;2024-02-26T05:09:11;14.63;;;8.52;;
41105;SDS011;74159;52.530;13.188;2024-02-26T05:11:37;15.07;;;8.50;;
41105;SDS011;74159;52.530;13.188;2024-02-26T05:14:02;12.93;;;9.40;;
41105;SDS011;74159;52.530;13.188;2024-02-26T05:16:28;16.65;;;9.02;;
41105;SDS011;74159;52.530;13.188;2024-02-26T05:18:55;18.40;;;9.25;;
41105;SDS011;74159;52.530;13.188;2024-02-26T05:21:20;14.60;;;8.35;;
41105;SDS011;74159;52.530;13.188;2024-02-26T05:23:46;11.32;;;8.02;;
41105;SDS011;74159;52.530;13.188;2024-02-26T05:26:11;15.25;;;8.80;;
41105;SDS011;74159;52.530;13.188;2024-02-26T05:28:36;11.93;;;8.73;;
41105;SDS011;74159;52.530;13.188;2024-02-26T05:31:04;12.77;;;8.38;;
41105;SDS011;74159;52.530;13.188;2024-02-26T05:33:30;10.30;;;7.10;;
41105;SDS011;74159;52.530;13.188;2024-02-26T05:35:55;12.25;;;7.95;;
41105;SDS011;74159;52.530;13.188;2024-02-26T05:38:20;14.10;;;8.65;;
41105;SDS011;74159;52.530;13.188;2024-02-26T05:40:46;13.77;;;8.55;;
41105;SDS011;74159;52.530;13.188;2024-02-26T05:43:11;14.07;;;8.35;;
41105;SDS011;74159;52.530;13.188;2024-02-26T05:45:36;16.52;;;8.57;;
41105;SDS011;74159;52.530;13.188;2024-02-26T05:48:02;14.77;;;9.52;;
41105;SDS011;74159;52.530;13.188;2024-02-26T05:50:28;14.75;;;9.35;;
41105;SDS011;74159;52.530;13.188;2024-02-26T05:52:53;14.80;;;9.68;;
41105;SDS011;74159;52.530;13.188;2024-02-26T05:55:18;14.55;;;8.25;;
41105;SDS011;74159;52.530;13.188;2024-02-26T05:57:44;11.85;;;8.80;;
41105;SDS011;74159;52.530;13.188;2024-02-26T06:00:09;12.60;;;8.82;;
41105;SDS011;74159;52.530;13.188;2024-02-26T06:02:35;10.23;;;7.88;;
41105;SDS011;74159;52.530;13.188;2024-02-26T06:05:01;13.35;;;8.70;;
41105;SDS011;74159;52.530;13.188;2024-02-26T06:07:26;15.98;;;10.45;;
41105;SDS011;74159;52.530;13.188;2024-02-26T06:09:51;17.90;;;10.20;;
41105;SDS011;74159;52.530;13.188;2024-02-26T06:12:17;15.93;;;10.18;;
41105;SDS011;74159;52.530;13.188;2024-02-26T06:14:42;22.27;;;11.80;;
41105;SDS011;74159;52.530;13.188;2024-02-26T06:17:08;22.05;;;12.70;;
41105;SDS011;74159;52.530;13.188;2024-02-26T06:19:33;25.23;;;13.48;;
41105;SDS011;74159;52.530;13.188;2024-02-26T06:21:59;38.55;;;16.27;;
41105;SDS011;74159;52.530;13.188;2024-02-26T06:24:24;47.22;;;20.25;;
41105;SDS011;74159;52.530;13.188;2024-02-26T06:26:49;31.17;;;15.95;;
41105;SDS011;74159;52.530;13.188;2024-02-26T06:29:15;18.50;;;9.32;;
41105;SDS011;74159;52.530;13.188;2024-02-26T06:31:40;16.13;;;9.40;;
41105;SDS011;74159;52.530;13.188;2024-02-26T06:34:05;16.58;;;9.25;;
41105;SDS011;74159;52.530;13.188;2024-02-26T06:36:31;15.60;;;10.73;;
41105;SDS011;74159;52.530;13.188;2024-02-26T06:38:57;16.33;;;11.57;;
41105;SDS011;74159;52.530;13.188;2024-02-26T06:41:22;17.50;;;11.73;;
41105;SDS011;74159;52.530;13.188;2024-02-26T06:43:53;21.80;;;12.55;;
41105;SDS011;74159;52.530;13.188;2024-02-26T06:46:18;18.95;;;11.68;;
41105;SDS011;74159;52.530;13.188;2024-02-26T06:48:44;17.17;;;12.13;;
41105;SDS011;74159;52.530;13.188;2024-02-26T06:51:09;18.98;;;11.75;;
41105;SDS011;74159;52.530;13.188;2024-02-26T06:53:34;20.80;;;11.75;;
41105;SDS011;74159;52.530;13.188;2024-02-26T06:56:00;22.17;;;11.73;;
41105;SDS011;74159;52.530;13.188;2024-02-26T06:58:25;19.83;;;12.63;;
41105;SDS011;74159;52.530;13.188;2024-02-26T07:00:51;19.08;;;13.45;;
41105;SDS011;74159;52.530;13.188;2024-02-26T07:03:16;21.88;;;14.55;;
41105;SDS011;74159;52.530;13.188;2024-02-26T07:05:41;24.25;;;14.93;;
41105;SDS011;74159;52.530;13.188;2024-02-26T07:08:07;19.20;;;14.00;;
41105;SDS011;74159;52.530;13.188;2024-02-26T07:10:32;21.17;;;14.55;;
41105;SDS011;74159;52.530;13.188;2024-02-26T07:12:57;19.15;;;13.00;;
41105;SDS011;74159;52.530;13.188;2024-02-26T07:15:23;22.85;;;14.68;;
41105;SDS011;74159;52.530;13.188;2024-02-26T07:17:49;22.60;;;13.93;;
41105;SDS011;74159;52.530;13.188;2024-02-26T07:20:14;22.23;;;13.02;;
41105;SDS011;74159;52.530;13.188;2024-02-26T07:22:40;20.23;;;12.70;;
41105;SDS011;74159;52.530;13.188;2024-02-26T07:25:07;20.38;;;13.85;;
41105;SDS011;74159;52.530;13.188;2024-02-26T07:27:33;30.45;;;14.60;;
41105;SDS011;74159;52.530;13.188;2024-02-26T07:29:59;22.00;;;12.40;;
41105;SDS011;74159;52.530;13.188;2024-02-26T07:32:24;27.45;;;15.00;;
41105;SDS011;74159;52.530;13.188;2024-02-26T07:34:50;16.52;;;13.02;;
41105;SDS011;74159;52.530;13.188;2024-02-26T07:37:15;24.15;;;13.32;;
41105;SDS011;74159;52.530;13.188;2024-02-26T07:39:41;21.75;;;13.55;;
41105;SDS011;74159;52.530;13.188;2024-02-26T07:42:06;18.45;;;12.35;;
41105;SDS011;74159;52.530;13.188;2024-02-26T07:44:32;21.23;;;12.38;;
41105;SDS011;74159;52.530;13.188;2024-02-26T07:46:58;17.23;;;11.93;;
41105;SDS011;74159;52.530;13.188;2024-02-26T07:49:23;22.20;;;12.73;;
41105;SDS011;74159;52.530;13.188;2024-02-26T07:51:49;27.58;;;13.43;;
41105;SDS011;74159;52.530;13.188;2024-02-26T07:54:14;22.17;;;12.48;;
41105;SDS011;74159;52.530;13.188;2024-02-26T07:56:41;23.02;;;13.13;;
41105;SDS011;74159;52.530;13.188;2024-02-26T07:59:06;18.92;;;12.30;;
41105;SDS011;74159;52.530;13.188;2024-02-26T08:01:32;18.83;;;13.07;;
41105;SDS011;74159;52.530;13.188;2024-02-26T08:03:58;19.73;;;12.23;;
41105;SDS011;74159;52.530;13.188;2024-02-26T08:06:24;22.80;;;12.77;;
41105;SDS011;74159;52.530;13.188;2024-02-26T08:08:50;24.77;;;14.10;;
41105;SDS011;74159;52.530;13.188;2024-02-26T08:11:15;20.48;;;14.45;;
41105;SDS011;74159;52.530;13.188;2024-02-26T08:13:41;26.05;;;13.65;;
41105;SDS011;74159;52.530;13.188;2024-02-26T08:16:06;19.10;;;14.15;;
41105;SDS011;74159;52.530;13.188;2024-02-26T08:18:32;23.73;;;14.20;;
41105;SDS011;74159;52.530;13.188;2024-02-26T08:20:57;24.42;;;13.57;;
41105;SDS011;74159;52.530;13.188;2024-02-26T08:23:22;26.05;;;14.40;;
41105;SDS011;74159;52.530;13.188;2024-02-26T08:25:47;23.15;;;14.15;;
41105;SDS011;74159;52.530;13.188;2024-02-26T08:28:13;28.45;;;14.18;;
41105;SDS011;74159;52.530;13.188;2024-02-26T08:30:39;20.63;;;13.40;;
41105;SDS011;74159;52.530;13.188;2024-02-26T08:33:04;24.35;;;14.75;;
41105;SDS011;74159;52.530;13.188;2024-02-26T08:35:30;24.65;;;14.68;;
41105;SDS011;74159;52.530;13.188;2024-02-26T08:37:55;26.63;;;13.70;;
41105;SDS011;74159;52.530;13.188;2024-02-26T08:40:20;23.63;;;13.73;;
41105;SDS011;74159;52.530;13.188;2024-02-26T08:42:46;23.85;;;14.52;;
41105;SDS011;74159;52.530;13.188;2024-02-26T08:45:11;18.70;;;13.65;;
41105;SDS011;74159;52.530;13.188;2024-02-26T08:47:37;23.23;;;14.68;;
41105;SDS011;74159;52.530;13.188;2024-02-26T08:50:03;22.75;;;14.60;;
41105;SDS011;74159;52.530;13.188;2024-02-26T08:52:29;25.27;;;14.65;;
41105;SDS011;74159;52.530;13.188;2024-02-26T08:54:55;22.17;;;14.85;;
41105;SDS011;74159;52.530;13.188;2024-02-26T08:57:20;22.60;;;13.82;;
41105;SDS011;74159;52.530;13.188;2024-02-26T08:59:45;24.80;;;14.65;;
41105;SDS011;74159;52.530;13.188;2024-02-26T09:02:11;28.02;;;15.13;;
41105;SDS011;74159;52.530;13.188;2024-02-26T09:04:36;21.23;;;14.40;;
41105;SDS011;74159;52.530;13.188;2024-02-26T09:07:01;26.58;;;15.35;;
41105;SDS011;74159;52.530;13.188;2024-02-26T09:09:27;25.10;;;14.70;;
41105;SDS011;74159;52.530;13.188;2024-02-26T09:11:53;25.90;;;14.65;;
41105;SDS011;74159;52.530;13.188;2024-02-26T09:14:20;26.70;;;14.30;;
41105;SDS011;74159;52.530;13.188;2024-02-26T09:16:45;25.15;;;14.40;;
41105;SDS011;74159;52.530;13.188;2024-02-26T09:19:11;19.35;;;13.93;;
41105;SDS011;74159;52.530;13.188;2024-02-26T09:21:37;27.63;;;13.88;;
41105;SDS011;74159;52.530;13.188;2024-02-26T09:24:07;20.13;;;13.82;;
41105;SDS011;74159;52.530;13.188;2024-02-26T09:26:33;20.23;;;14.95;;
41105;SDS011;74159;52.530;13.188;2024-02-26T09:28:58;27.23;;;15.13;;
41105;SDS011;74159;52.530;13.188;2024-02-26T09:31:23;27.17;;;15.65;;
41105;SDS011;74159;52.530;13.188;2024-02-26T09:33:49;29.50;;;15.45;;
41105;SDS011;74159;52.530;13.188;2024-02-26T09:36:15;21.33;;;15.40;;
41105;SDS011;74159;52.530;13.188;2024-02-26T09:38:40;32.35;;;16.55;;
41105;SDS011;74159;52.530;13.188;2024-02-26T09:41:06;27.40;;;15.60;;
41105;SDS011;74159;52.530;13.188;2024-02-26T09:43:39;27.90;;;16.30;;
41105;SDS011;74159;52.530;13.188;2024-02-26T09:46:08;22.75;;;15.57;;
41105;SDS011;74159;52.530;13.188;2024-02-26T09:48:34;31.17;;;15.98;;
41105;SDS011;74159;52.530;13.188;2024-02-26T09:51:01;23.17;;;14.27;;
41105;SDS011;74159;52.530;13.188;2024-02-26T09:53:28;26.80;;;15.60;;
41105;SDS011;74159;52.530;13.188;2024-02-26T09:55:57;26.75;;;14.10;;
41105;SDS011;74159;52.530;13.188;2024-02-26T09:58:22;26.13;;;13.15;;
41105;SDS011;74159;52.530;13.188;2024-02-26T10:00:51;21.52;;;13.55;;
41105;SDS011;74159;52.530;13.188;2024-02-26T10:03:21;18.77;;;13.65;;
41105;SDS011;74159;52.530;13.188;2024-02-26T10:05:50;24.30;;;13.40;;
41105;SDS011;74159;52.530;13.188;2024-02-26T10:08:16;29.98;;;15.18;;
41105;SDS011;74159;52.530;13.188;2024-02-26T10:10:43;20.77;;;14.07;;
41105;SDS011;74159;52.530;13.188;2024-02-26T10:13:09;20.77;;;13.55;;
41105;SDS011;74159;52.530;13.188;2024-02-26T10:15:36;23.35;;;13.02;;
41105;SDS011;74159;52.530;13.188;2024-02-26T10:18:05;24.88;;;14.45;;
41105;SDS011;74159;52.530;13.188;2024-02-26T10:20:31;23.20;;;13.38;;
41105;SDS011;74159;52.530;13.188;2024-02-26T10:22:57;21.08;;;13.85;;
41105;SDS011;74159;52.530;13.188;2024-02-26T10:25:23;25.90;;;13.57;;
41105;SDS011;74159;52.530;13.188;2024-02-26T10:27:48;20.67;;;13.68;;
41105;SDS011;74159;52.530;13.188;2024-02-26T10:30:18;22.80;;;13.75;;
41105;SDS011;74159;52.530;13.188;2024-02-26T10:32:46;22.88;;;13.15;;
41105;SDS011;74159;52.530;13.188;2024-02-26T10:35:12;20.25;;;13.57;;
41105;SDS011;74159;52.530;13.188;2024-02-26T10:37:39;19.17;;;12.20;;
41105;SDS011;74159;52.530;13.188;2024-02-26T10:40:06;21.98;;;12.50;;
41105;SDS011;74159;52.530;13.188;2024-02-26T10:42:34;26.33;;;13.43;;
41105;SDS011;74159;52.530;13.188;2024-02-26T10:45:00;16.85;;;11.80;;
41105;SDS011;74159;52.530;13.188;2024-02-26T10:47:27;19.83;;;11.55;;
41105;SDS011;74159;52.530;13.188;2024-02-26T10:49:53;22.80;;;11.27;;
41105;SDS011;74159;52.530;13.188;2024-02-26T10:52:19;14.40;;;10.05;;
41105;SDS011;74159;52.530;13.188;2024-02-26T10:54:46;15.50;;;11.00;;
41105;SDS011;74159;52.530;13.188;2024-02-26T10:57:13;18.05;;;10.85;;
41105;SDS011;74159;52.530;13.188;2024-02-26T10:59:40;15.18;;;10.65;;
41105;SDS011;74159;52.530;13.188;2024-02-26T11:02:07;27.08;;;11.18;;
41105;SDS011;74159;52.530;13.188;2024-02-26T11:04:35;13.48;;;9.88;;
41105;SDS011;74159;52.530;13.188;2024-02-26T11:07:01;18.15;;;9.52;;
41105;SDS011;74159;52.530;13.188;2024-02-26T11:09:28;14.65;;;10.10;;
41105;SDS011;74159;52.530;13.188;2024-02-26T11:11:54;16.10;;;9.07;;
41105;SDS011;74159;52.530;13.188;2024-02-26T11:14:21;14.95;;;9.10;;
41105;SDS011;74159;52.530;13.188;2024-02-26T11:16:47;16.42;;;9.93;;
41105;SDS011;74159;52.530;13.188;2024-02-26T11:19:14;13.18;;;8.48;;
41105;SDS011;74159;52.530;13.188;2024-02-26T11:21:41;11.90;;;8.73;;
41105;SDS011;74159;52.530;13.188;2024-02-26T11:24:11;20.15;;;9.25;;
41105;SDS011;74159;52.530;13.188;2024-02-26T11:26:49;13.30;;;10.00;;
41105;SDS011;74159;52.530;13.188;2024-02-26T11:29:24;18.05;;;10.50;;
41105;SDS011;74159;52.530;13.188;2024-02-26T11:31:52;14.30;;;10.65;;
41105;SDS011;74159;52.530;13.188;2024-02-26T11:34:18;16.77;;;9.05;;
41105;SDS011;74159;52.530;13.188;2024-02-26T11:36:43;15.60;;;8.95;;
41105;SDS011;74159;52.530;13.188;2024-02-26T11:39:10;23.88;;;9.93;;
41105;SDS011;74159;52.530;13.188;2024-02-26T11:41:41;13.13;;;9.48;;
41105;SDS011;74159;52.530;13.188;2024-02-26T11:44:07;13.70;;;8.95;;
41105;SDS011;74159;52.530;13.188;2024-02-26T11:46:34;13.27;;;8.80;;
41105;SDS011;74159;52.530;13.188;2024-02-26T11:51:51;11.52;;;7.28;;
41105;SDS011;74159;52.530;13.188;2024-02-26T11:57:04;17.13;;;8.07;;
41105;SDS011;74159;52.530;13.188;2024-02-26T11:59:38;10.02;;;7.25;;
41105;SDS011;74159;52.530;13.188;2024-02-26T12:04:32;13.32;;;7.40;;
41105;SDS011;74159;52.530;13.188;2024-02-26T12:07:00;12.70;;;7.60;;
41105;SDS011;74159;52.530;13.188;2024-02-26T12:09:33;15.13;;;7.50;;
41105;SDS011;74159;52.530;13.188;2024-02-26T12:11:59;15.70;;;7.05;;
41105;SDS011;74159;52.530;13.188;2024-02-26T12:14:26;13.70;;;7.43;;
41105;SDS011;74159;52.530;13.188;2024-02-26T12:16:52;11.20;;;6.88;;
41105;SDS011;74159;52.530;13.188;2024-02-26T12:19:18;15.93;;;7.85;;
41105;SDS011;74159;52.530;13.188;2024-02-26T12:21:43;17.20;;;7.60;;
41105;SDS011;74159;52.530;13.188;2024-02-26T12:24:12;12.43;;;6.63;;
41105;SDS011;74159;52.530;13.188;2024-02-26T12:26:39;16.58;;;7.15;;
41105;SDS011;74159;52.530;13.188;2024-02-26T12:29:05;11.50;;;7.20;;
41105;SDS011;74159;52.530;13.188;2024-02-26T12:31:32;14.88;;;6.75;;
41105;SDS011;74159;52.530;13.188;2024-02-26T12:33:58;11.27;;;6.38;;
41105;SDS011;74159;52.530;13.188;2024-02-26T12:36:24;14.25;;;6.90;;
41105;SDS011;74159;52.530;13.188;2024-02-26T12:38:50;9.93;;;7.07;;
41105;SDS011;74159;52.530;13.188;2024-02-26T12:41:16;11.85;;;6.88;;
41105;SDS011;74159;52.530;13.188;2024-02-26T12:43:41;10.73;;;7.28;;
41105;SDS011;74159;52.530;13.188;2024-02-26T12:46:07;10.10;;;7.15;;
41105;SDS011;74159;52.530;13.188;2024-02-26T12:48:32;8.20;;;6.78;;
41105;SDS011;74159;52.530;13.188;2024-02-26T12:50:58;9.95;;;7.00;;
41105;SDS011;74159;52.530;13.188;2024-02-26T12:53:24;12.38;;;6.45;;
41105;SDS011;74159;52.530;13.188;2024-02-26T12:55:50;9.35;;;6.43;;
41105;SDS011;74159;52.530;13.188;2024-02-26T12:58:16;10.20;;;6.32;;
41105;SDS011;74159;52.530;13.188;2024-02-26T13:00:42;11.50;;;5.88;;
41105;SDS011;74159;52.530;13.188;2024-02-26T13:03:07;12.25;;;6.18;;
41105;SDS011;74159;52.530;13.188;2024-02-26T13:05:34;15.85;;;6.07;;
41105;SDS011;74159;52.530;13.188;2024-02-26T13:08:00;7.53;;;5.97;;
41105;SDS011;74159;52.530;13.188;2024-02-26T13:10:26;17.77;;;6.30;;
41105;SDS011;74159;52.530;13.188;2024-02-26T13:12:51;6.55;;;4.65;;
41105;SDS011;74159;52.530;13.188;2024-02-26T13:15:17;8.25;;;5.40;;
41105;SDS011;74159;52.530;13.188;2024-02-26T13:17:45;7.53;;;5.15;;
41105;SDS011;74159;52.530;13.188;2024-02-26T13:20:11;8.45;;;5.07;;
41105;SDS011;74159;52.530;13.188;2024-02-26T13:22:38;8.13;;;5.28;;
41105;SDS011;74159;52.530;13.188;2024-02-26T13:25:04;7.38;;;4.97;;
41105;SDS011;74159;52.530;13.188;2024-02-26T13:27:32;14.82;;;4.50;;
41105;SDS011;74159;52.530;13.188;2024-02-26T13:30:02;10.45;;;3.78;;
41105;SDS011;74159;52.530;13.188;2024-02-26T13:32:45;6.00;;;3.13;;
41105;SDS011;74159;52.530;13.188;2024-02-26T13:35:12;7.55;;;3.28;;
41105;SDS011;74159;52.530;13.188;2024-02-26T13:37:38;8.15;;;2.78;;
41105;SDS011;74159;52.530;13.188;2024-02-26T13:40:08;10.32;;;2.38;;
41105;SDS011;74159;52.530;13.188;2024-02-26T13:42:35;3.63;;;2.13;;
41105;SDS011;74159;52.530;13.188;2024-02-26T13:45:01;4.88;;;2.42;;
41105;SDS011;74159;52.530;13.188;2024-02-26T13:47:27;7.50;;;2.58;;
41105;SDS011;74159;52.530;13.188;2024-02-26T13:49:52;5.15;;;2.53;;
41105;SDS011;74159;52.530;13.188;2024-02-26T13:52:18;6.85;;;2.20;;
41105;SDS011;74159;52.530;13.188;2024-02-26T13:54:45;3.15;;;2.10;;
41105;SDS011;74159;52.530;13.188;2024-02-26T13:57:10;4.97;;;2.63;;
41105;SDS011;74159;52.530;13.188;2024-02-26T13:59:36;5.03;;;2.55;;
41105;SDS011;74159;52.530;13.188;2024-02-26T14:02:02;2.80;;;2.38;;
41105;SDS011;74159;52.530;13.188;2024-02-26T14:04:27;4.30;;;2.40;;
41105;SDS011;74159;52.530;13.188;2024-02-26T14:06:52;3.55;;;2.58;;
41105;SDS011;74159;52.530;13.188;2024-02-26T14:09:18;5.20;;;2.22;;
41105;SDS011;74159;52.530;13.188;2024-02-26T14:11:46;9.32;;;2.50;;
41105;SDS011;74159;52.530;13.188;2024-02-26T14:14:12;6.90;;;2.20;;
41105;SDS011;74159;52.530;13.188;2024-02-26T14:16:38;12.40;;;2.67;;
41105;SDS011;74159;52.530;13.188;2024-02-26T14:19:03;6.72;;;3.25;;